sensor_id;sensor_type;location;lat;lon;timestamp;P1;durP1;ratioP1;P2;durP2;ratioP2
27209;SDS011;14721;42.668;23.386;2022-07-29T00:00:44;7.10;;;3.63;;
27209;SDS011;14721;42.668;23.386;2022-07-29T00:03:11;5.07;;;3.08;;
27209;SDS011;14721;42.668;23.386;2022-07-29T00:05:42;5.78;;;3.63;;
27209;SDS011;14721;42.668;23.386;2022-07-29T00:08:08;7.82;;;4.05;;
27209;SDS011;14721;42.668;23.386;2022-07-29T00:10:34;7.68;;;3.55;;
27209;SDS011;14721;42.668;23.386;2022-07-29T00:12:59;7.40;;;3.47;;
27209;SDS011;14721;42.668;23.386;2022-07-29T00:15:26;6.68;;;3.90;;
27209;SDS011;14721;42.668;23.386;2022-07-29T00:17:52;5.90;;;3.83;;
27209;SDS011;14721;42.668;23.386;2022-07-29T00:20:18;7.95;;;4.30;;
27209;SDS011;14721;42.668;23.386;2022-07-29T00:22:43;11.00;;;4.55;;
27209;SDS011;14721;42.668;23.386;2022-07-29T00:25:09;6.35;;;4.20;;
27209;SDS011;14721;42.668;23.386;2022-07-29T00:27:36;5.75;;;3.05;;
27209;SDS011;14721;42.668;23.386;2022-07-29T00:30:03;5.53;;;3.35;;
27209;SDS011;14721;42.668;23.386;2022-07-29T00:32:30;7.07;;;3.97;;
27209;SDS011;14721;42.668;23.386;2022-07-29T00:34:56;7.72;;;3.60;;
27209;SDS011;14721;42.668;23.386;2022-07-29T00:37:40;4.57;;;3.20;;
27209;SDS011;14721;42.668;23.386;2022-07-29T00:40:06;6.18;;;3.17;;
27209;SDS011;14721;42.668;23.386;2022-07-29T00:42:42;6.32;;;3.83;;
27209;SDS011;14721;42.668;23.386;2022-07-29T00:45:13;5.90;;;3.08;;
27209;SDS011;14721;42.668;23.386;2022-07-29T00:47:41;7.28;;;3.92;;
27209;SDS011;14721;42.668;23.386;2022-07-29T00:50:08;7.78;;;4.43;;
27209;SDS011;14721;42.668;23.386;2022-07-29T00:52:36;6.65;;;3.70;;
27209;SDS011;14721;42.668;23.386;2022-07-29T00:55:04;5.43;;;3.65;;
27209;SDS011;14721;42.668;23.386;2022-07-29T00:57:31;8.52;;;3.80;;
27209;SDS011;14721;42.668;23.386;2022-07-29T00:59:57;10.05;;;4.45;;
27209;SDS011;14721;42.668;23.386;2022-07-29T01:02:24;6.68;;;3.58;;
27209;SDS011;14721;42.668;23.386;2022-07-29T01:04:49;14.15;;;5.00;;
27209;SDS011;14721;42.668;23.386;2022-07-29T01:07:16;5.85;;;3.60;;
27209;SDS011;14721;42.668;23.386;2022-07-29T01:09:43;8.70;;;4.55;;
27209;SDS011;14721;42.668;23.386;2022-07-29T01:12:11;6.15;;;4.30;;
27209;SDS011;14721;42.668;23.386;2022-07-29T01:14:42;7.82;;;4.35;;
27209;SDS011;14721;42.668;23.386;2022-07-29T01:17:17;6.45;;;3.55;;
27209;SDS011;14721;42.668;23.386;2022-07-29T01:22:42;7.57;;;4.68;;
27209;SDS011;14721;42.668;23.386;2022-07-29T01:31:22;11.60;;;5.57;;
27209;SDS011;14721;42.668;23.386;2022-07-29T01:34:01;7.82;;;4.47;;
27209;SDS011;14721;42.668;23.386;2022-07-29T01:39:07;6.47;;;4.18;;
27209;SDS011;14721;42.668;23.386;2022-07-29T01:41:57;9.98;;;4.45;;
27209;SDS011;14721;42.668;23.386;2022-07-29T01:44:36;9.57;;;4.93;;
27209;SDS011;14721;42.668;23.386;2022-07-29T01:47:10;7.32;;;4.72;;
27209;SDS011;14721;42.668;23.386;2022-07-29T01:49:40;8.40;;;4.93;;
27209;SDS011;14721;42.668;23.386;2022-07-29T01:52:14;8.93;;;4.75;;
27209;SDS011;14721;42.668;23.386;2022-07-29T01:54:47;8.82;;;4.90;;
27209;SDS011;14721;42.668;23.386;2022-07-29T01:57:18;10.25;;;5.68;;
27209;SDS011;14721;42.668;23.386;2022-07-29T01:59:46;8.73;;;5.20;;
27209;SDS011;14721;42.668;23.386;2022-07-29T02:02:16;9.25;;;5.45;;
27209;SDS011;14721;42.668;23.386;2022-07-29T02:04:44;8.90;;;5.00;;
27209;SDS011;14721;42.668;23.386;2022-07-29T02:07:15;9.82;;;5.85;;
27209;SDS011;14721;42.668;23.386;2022-07-29T02:09:44;11.50;;;5.13;;
27209;SDS011;14721;42.668;23.386;2022-07-29T02:12:11;7.80;;;5.35;;
27209;SDS011;14721;42.668;23.386;2022-07-29T02:14:40;8.63;;;4.88;;
27209;SDS011;14721;42.668;23.386;2022-07-29T02:17:12;9.75;;;5.25;;
27209;SDS011;14721;42.668;23.386;2022-07-29T02:19:40;7.80;;;5.15;;
27209;SDS011;14721;42.668;23.386;2022-07-29T02:22:08;6.95;;;4.53;;
27209;SDS011;14721;42.668;23.386;2022-07-29T02:24:35;6.50;;;3.95;;
27209;SDS011;14721;42.668;23.386;2022-07-29T02:27:05;6.35;;;3.70;;
27209;SDS011;14721;42.668;23.386;2022-07-29T02:29:33;9.88;;;3.70;;
27209;SDS011;14721;42.668;23.386;2022-07-29T02:32:00;5.80;;;3.40;;
27209;SDS011;14721;42.668;23.386;2022-07-29T02:34:29;5.65;;;3.80;;
27209;SDS011;14721;42.668;23.386;2022-07-29T02:36:56;4.63;;;2.88;;
27209;SDS011;14721;42.668;23.386;2022-07-29T02:39:21;6.93;;;4.00;;
27209;SDS011;14721;42.668;23.386;2022-07-29T02:41:54;6.05;;;3.13;;
27209;SDS011;14721;42.668;23.386;2022-07-29T02:44:27;6.22;;;3.65;;
27209;SDS011;14721;42.668;23.386;2022-07-29T02:46:58;6.22;;;3.08;;
27209;SDS011;14721;42.668;23.386;2022-07-29T02:49:40;4.53;;;3.22;;
27209;SDS011;14721;42.668;23.386;2022-07-29T02:52:24;5.32;;;3.53;;
27209;SDS011;14721;42.668;23.386;2022-07-29T02:54:58;5.10;;;2.67;;
27209;SDS011;14721;42.668;23.386;2022-07-29T02:57:41;5.70;;;3.58;;
27209;SDS011;14721;42.668;23.386;2022-07-29T03:00:09;6.88;;;3.65;;
27209;SDS011;14721;42.668;23.386;2022-07-29T03:02:37;6.00;;;3.72;;
27209;SDS011;14721;42.668;23.386;2022-07-29T03:05:09;8.73;;;4.50;;
27209;SDS011;14721;42.668;23.386;2022-07-29T03:07:39;11.50;;;5.72;;
27209;SDS011;14721;42.668;23.386;2022-07-29T03:10:08;7.50;;;4.25;;
27209;SDS011;14721;42.668;23.386;2022-07-29T03:12:34;10.25;;;6.78;;
27209;SDS011;14721;42.668;23.386;2022-07-29T03:15:01;8.73;;;5.05;;
27209;SDS011;14721;42.668;23.386;2022-07-29T03:17:27;10.63;;;5.30;;
27209;SDS011;14721;42.668;23.386;2022-07-29T03:19:54;10.15;;;5.47;;
27209;SDS011;14721;42.668;23.386;2022-07-29T03:22:20;12.02;;;5.90;;
27209;SDS011;14721;42.668;23.386;2022-07-29T03:24:46;8.45;;;4.78;;
27209;SDS011;14721;42.668;23.386;2022-07-29T03:27:12;10.40;;;5.80;;
27209;SDS011;14721;42.668;23.386;2022-07-29T03:29:38;6.75;;;4.80;;
27209;SDS011;14721;42.668;23.386;2022-07-29T03:32:04;12.45;;;5.05;;
27209;SDS011;14721;42.668;23.386;2022-07-29T03:34:30;10.13;;;5.72;;
27209;SDS011;14721;42.668;23.386;2022-07-29T03:36:58;9.93;;;6.18;;
27209;SDS011;14721;42.668;23.386;2022-07-29T03:39:24;9.32;;;5.82;;
27209;SDS011;14721;42.668;23.386;2022-07-29T03:41:54;9.90;;;6.45;;
27209;SDS011;14721;42.668;23.386;2022-07-29T03:44:23;11.57;;;6.20;;
27209;SDS011;14721;42.668;23.386;2022-07-29T03:46:53;13.20;;;6.75;;
27209;SDS011;14721;42.668;23.386;2022-07-29T03:49:23;10.13;;;5.82;;
27209;SDS011;14721;42.668;23.386;2022-07-29T03:51:51;15.98;;;6.53;;
27209;SDS011;14721;42.668;23.386;2022-07-29T03:54:17;10.18;;;5.20;;
27209;SDS011;14721;42.668;23.386;2022-07-29T03:56:45;9.48;;;5.15;;
27209;SDS011;14721;42.668;23.386;2022-07-29T03:59:13;7.68;;;4.55;;
27209;SDS011;14721;42.668;23.386;2022-07-29T04:01:40;9.10;;;5.22;;
27209;SDS011;14721;42.668;23.386;2022-07-29T04:04:07;10.82;;;4.65;;
27209;SDS011;14721;42.668;23.386;2022-07-29T04:09:10;6.05;;;4.15;;
27209;SDS011;14721;42.668;23.386;2022-07-29T04:11:38;6.53;;;3.75;;
27209;SDS011;14721;42.668;23.386;2022-07-29T04:14:05;10.40;;;4.78;;
27209;SDS011;14721;42.668;23.386;2022-07-29T04:16:31;6.00;;;4.18;;
27209;SDS011;14721;42.668;23.386;2022-07-29T04:18:57;10.20;;;3.30;;
27209;SDS011;14721;42.668;23.386;2022-07-29T04:21:25;7.10;;;3.40;;
27209;SDS011;14721;42.668;23.386;2022-07-29T04:23:52;6.15;;;3.35;;
27209;SDS011;14721;42.668;23.386;2022-07-29T04:26:18;7.25;;;4.95;;
27209;SDS011;14721;42.668;23.386;2022-07-29T04:28:44;5.80;;;3.70;;
27209;SDS011;14721;42.668;23.386;2022-07-29T04:31:12;6.43;;;3.33;;
27209;SDS011;14721;42.668;23.386;2022-07-29T04:33:39;4.75;;;3.55;;
27209;SDS011;14721;42.668;23.386;2022-07-29T04:36:05;7.90;;;3.58;;
27209;SDS011;14721;42.668;23.386;2022-07-29T04:38:34;7.15;;;4.05;;
27209;SDS011;14721;42.668;23.386;2022-07-29T04:40:59;6.63;;;4.00;;
27209;SDS011;14721;42.668;23.386;2022-07-29T04:43:26;11.10;;;4.78;;
27209;SDS011;14721;42.668;23.386;2022-07-29T04:45:51;7.28;;;4.50;;
27209;SDS011;14721;42.668;23.386;2022-07-29T04:48:17;7.05;;;4.30;;
27209;SDS011;14721;42.668;23.386;2022-07-29T04:53:12;6.70;;;3.88;;
27209;SDS011;14721;42.668;23.386;2022-07-29T04:55:39;5.40;;;3.55;;
27209;SDS011;14721;42.668;23.386;2022-07-29T04:58:06;4.88;;;3.47;;
27209;SDS011;14721;42.668;23.386;2022-07-29T05:00:32;5.93;;;3.50;;
27209;SDS011;14721;42.668;23.386;2022-07-29T05:03:01;9.23;;;4.18;;
27209;SDS011;14721;42.668;23.386;2022-07-29T05:05:27;5.68;;;3.88;;
27209;SDS011;14721;42.668;23.386;2022-07-29T05:07:52;7.28;;;3.83;;
27209;SDS011;14721;42.668;23.386;2022-07-29T05:10:19;4.97;;;3.58;;
27209;SDS011;14721;42.668;23.386;2022-07-29T05:12:51;7.85;;;3.58;;
27209;SDS011;14721;42.668;23.386;2022-07-29T05:15:17;6.28;;;3.60;;
27209;SDS011;14721;42.668;23.386;2022-07-29T05:17:43;4.40;;;2.97;;
27209;SDS011;14721;42.668;23.386;2022-07-29T05:20:09;6.95;;;3.70;;
27209;SDS011;14721;42.668;23.386;2022-07-29T05:22:35;5.35;;;3.22;;
27209;SDS011;14721;42.668;23.386;2022-07-29T05:25:03;6.35;;;3.72;;
27209;SDS011;14721;42.668;23.386;2022-07-29T05:27:28;6.03;;;3.83;;
27209;SDS011;14721;42.668;23.386;2022-07-29T05:29:54;5.25;;;3.22;;
27209;SDS011;14721;42.668;23.386;2022-07-29T05:32:21;5.60;;;2.95;;
27209;SDS011;14721;42.668;23.386;2022-07-29T05:34:47;6.45;;;3.65;;
27209;SDS011;14721;42.668;23.386;2022-07-29T05:37:15;5.63;;;2.90;;
27209;SDS011;14721;42.668;23.386;2022-07-29T05:39:40;4.97;;;2.90;;
27209;SDS011;14721;42.668;23.386;2022-07-29T05:42:07;4.97;;;3.15;;
27209;SDS011;14721;42.668;23.386;2022-07-29T05:44:38;5.20;;;3.35;;
27209;SDS011;14721;42.668;23.386;2022-07-29T05:47:04;12.48;;;3.70;;
27209;SDS011;14721;42.668;23.386;2022-07-29T05:49:31;4.47;;;2.55;;
27209;SDS011;14721;42.668;23.386;2022-07-29T05:51:57;3.08;;;1.92;;
27209;SDS011;14721;42.668;23.386;2022-07-29T05:54:25;3.92;;;2.50;;
27209;SDS011;14721;42.668;23.386;2022-07-29T05:56:50;4.03;;;2.63;;
27209;SDS011;14721;42.668;23.386;2022-07-29T05:59:18;3.47;;;2.22;;
27209;SDS011;14721;42.668;23.386;2022-07-29T06:01:50;4.70;;;2.80;;
27209;SDS011;14721;42.668;23.386;2022-07-29T06:04:15;4.00;;;2.65;;
27209;SDS011;14721;42.668;23.386;2022-07-29T06:06:41;5.20;;;2.88;;
27209;SDS011;14721;42.668;23.386;2022-07-29T06:09:06;5.20;;;2.65;;
27209;SDS011;14721;42.668;23.386;2022-07-29T06:11:33;4.88;;;2.72;;
27209;SDS011;14721;42.668;23.386;2022-07-29T06:13:58;4.70;;;2.63;;
27209;SDS011;14721;42.668;23.386;2022-07-29T06:16:24;5.25;;;3.03;;
27209;SDS011;14721;42.668;23.386;2022-07-29T06:18:49;5.03;;;3.42;;
27209;SDS011;14721;42.668;23.386;2022-07-29T06:21:16;4.30;;;3.15;;
27209;SDS011;14721;42.668;23.386;2022-07-29T06:23:41;3.80;;;2.53;;
27209;SDS011;14721;42.668;23.386;2022-07-29T06:26:08;3.83;;;2.45;;
27209;SDS011;14721;42.668;23.386;2022-07-29T06:28:35;4.28;;;2.63;;
27209;SDS011;14721;42.668;23.386;2022-07-29T06:31:01;4.97;;;2.63;;
27209;SDS011;14721;42.668;23.386;2022-07-29T06:33:27;4.50;;;3.03;;
27209;SDS011;14721;42.668;23.386;2022-07-29T06:35:55;5.45;;;3.08;;
27209;SDS011;14721;42.668;23.386;2022-07-29T06:38:20;8.43;;;3.45;;
27209;SDS011;14721;42.668;23.386;2022-07-29T06:40:46;4.50;;;2.70;;
27209;SDS011;14721;42.668;23.386;2022-07-29T06:43:37;4.05;;;2.67;;
27209;SDS011;14721;42.668;23.386;2022-07-29T06:46:13;4.45;;;2.53;;
27209;SDS011;14721;42.668;23.386;2022-07-29T06:48:41;3.10;;;2.28;;
27209;SDS011;14721;42.668;23.386;2022-07-29T06:51:07;5.38;;;2.80;;
27209;SDS011;14721;42.668;23.386;2022-07-29T06:53:34;4.60;;;2.83;;
27209;SDS011;14721;42.668;23.386;2022-07-29T06:56:00;6.32;;;3.05;;
27209;SDS011;14721;42.668;23.386;2022-07-29T06:58:28;6.03;;;2.40;;
27209;SDS011;14721;42.668;23.386;2022-07-29T07:00:54;3.97;;;2.40;;
27209;SDS011;14721;42.668;23.386;2022-07-29T07:03:26;4.10;;;2.80;;
27209;SDS011;14721;42.668;23.386;2022-07-29T07:05:54;3.70;;;1.95;;
27209;SDS011;14721;42.668;23.386;2022-07-29T07:08:22;3.42;;;2.00;;
27209;SDS011;14721;42.668;23.386;2022-07-29T07:10:49;4.97;;;2.08;;
27209;SDS011;14721;42.668;23.386;2022-07-29T07:13:15;4.00;;;2.70;;
27209;SDS011;14721;42.668;23.386;2022-07-29T07:15:45;2.75;;;2.13;;
27209;SDS011;14721;42.668;23.386;2022-07-29T07:18:19;4.60;;;2.15;;
27209;SDS011;14721;42.668;23.386;2022-07-29T07:20:45;3.13;;;2.15;;
27209;SDS011;14721;42.668;23.386;2022-07-29T07:23:12;3.38;;;2.38;;
27209;SDS011;14721;42.668;23.386;2022-07-29T07:25:38;3.15;;;2.25;;
27209;SDS011;14721;42.668;23.386;2022-07-29T07:28:04;3.33;;;2.35;;
27209;SDS011;14721;42.668;23.386;2022-07-29T07:30:32;2.58;;;1.90;;
27209;SDS011;14721;42.668;23.386;2022-07-29T07:32:58;4.55;;;2.50;;
27209;SDS011;14721;42.668;23.386;2022-07-29T07:35:24;5.65;;;2.22;;
27209;SDS011;14721;42.668;23.386;2022-07-29T07:37:53;2.92;;;1.83;;
27209;SDS011;14721;42.668;23.386;2022-07-29T07:40:19;4.78;;;2.03;;
27209;SDS011;14721;42.668;23.386;2022-07-29T07:42:44;2.70;;;2.10;;
27209;SDS011;14721;42.668;23.386;2022-07-29T07:45:10;3.83;;;2.22;;
27209;SDS011;14721;42.668;23.386;2022-07-29T07:47:38;2.40;;;1.80;;
27209;SDS011;14721;42.668;23.386;2022-07-29T07:50:04;5.03;;;3.17;;
27209;SDS011;14721;42.668;23.386;2022-07-29T07:52:32;5.05;;;2.70;;
27209;SDS011;14721;42.668;23.386;2022-07-29T07:54:58;3.55;;;2.10;;
27209;SDS011;14721;42.668;23.386;2022-07-29T07:57:25;2.22;;;1.67;;
27209;SDS011;14721;42.668;23.386;2022-07-29T07:59:52;3.05;;;2.28;;
27209;SDS011;14721;42.668;23.386;2022-07-29T08:02:17;2.20;;;1.70;;
27209;SDS011;14721;42.668;23.386;2022-07-29T08:04:43;3.33;;;2.15;;
27209;SDS011;14721;42.668;23.386;2022-07-29T08:07:09;3.10;;;1.88;;
27209;SDS011;14721;42.668;23.386;2022-07-29T08:09:34;2.95;;;1.75;;
27209;SDS011;14721;42.668;23.386;2022-07-29T08:12:00;2.25;;;1.70;;
27209;SDS011;14721;42.668;23.386;2022-07-29T08:14:29;3.22;;;1.83;;
27209;SDS011;14721;42.668;23.386;2022-07-29T08:16:55;11.13;;;2.10;;
27209;SDS011;14721;42.668;23.386;2022-07-29T08:19:20;3.22;;;1.60;;
27209;SDS011;14721;42.668;23.386;2022-07-29T08:21:46;3.47;;;1.85;;
27209;SDS011;14721;42.668;23.386;2022-07-29T08:24:12;3.97;;;2.25;;
27209;SDS011;14721;42.668;23.386;2022-07-29T08:26:56;3.13;;;2.13;;
27209;SDS011;14721;42.668;23.386;2022-07-29T08:29:22;3.03;;;1.77;;
27209;SDS011;14721;42.668;23.386;2022-07-29T08:31:48;3.13;;;2.10;;
27209;SDS011;14721;42.668;23.386;2022-07-29T08:34:13;2.83;;;1.95;;
27209;SDS011;14721;42.668;23.386;2022-07-29T08:36:39;2.45;;;1.67;;
27209;SDS011;14721;42.668;23.386;2022-07-29T08:39:04;2.90;;;1.70;;
27209;SDS011;14721;42.668;23.386;2022-07-29T08:41:30;2.85;;;1.50;;
27209;SDS011;14721;42.668;23.386;2022-07-29T08:43:57;5.30;;;1.90;;
27209;SDS011;14721;42.668;23.386;2022-07-29T08:46:23;2.35;;;1.95;;
27209;SDS011;14721;42.668;23.386;2022-07-29T08:48:48;4.10;;;1.80;;
27209;SDS011;14721;42.668;23.386;2022-07-29T08:51:15;2.75;;;1.73;;
27209;SDS011;14721;42.668;23.386;2022-07-29T08:53:42;2.80;;;1.58;;
27209;SDS011;14721;42.668;23.386;2022-07-29T08:56:17;2.92;;;2.15;;
27209;SDS011;14721;42.668;23.386;2022-07-29T08:58:44;2.25;;;1.63;;
27209;SDS011;14721;42.668;23.386;2022-07-29T09:01:12;2.38;;;1.50;;
27209;SDS011;14721;42.668;23.386;2022-07-29T09:03:44;2.42;;;1.65;;
27209;SDS011;14721;42.668;23.386;2022-07-29T09:06:12;2.25;;;1.50;;
27209;SDS011;14721;42.668;23.386;2022-07-29T09:08:39;2.03;;;1.65;;
27209;SDS011;14721;42.668;23.386;2022-07-29T09:11:05;2.13;;;1.45;;
27209;SDS011;14721;42.668;23.386;2022-07-29T09:13:32;2.58;;;1.60;;
27209;SDS011;14721;42.668;23.386;2022-07-29T09:15:59;2.25;;;1.33;;
27209;SDS011;14721;42.668;23.386;2022-07-29T09:18:37;3.88;;;2.13;;
27209;SDS011;14721;42.668;23.386;2022-07-29T09:21:08;3.88;;;1.75;;
27209;SDS011;14721;42.668;23.386;2022-07-29T09:24:04;3.88;;;2.00;;
27209;SDS011;14721;42.668;23.386;2022-07-29T09:26:32;2.65;;;1.58;;
27209;SDS011;14721;42.668;23.386;2022-07-29T09:29:09;6.43;;;2.75;;
27209;SDS011;14721;42.668;23.386;2022-07-29T09:31:40;4.63;;;2.17;;
27209;SDS011;14721;42.668;23.386;2022-07-29T09:34:07;2.83;;;2.05;;
27209;SDS011;14721;42.668;23.386;2022-07-29T09:36:41;5.70;;;2.03;;
27209;SDS011;14721;42.668;23.386;2022-07-29T09:39:11;4.25;;;1.88;;
27209;SDS011;14721;42.668;23.386;2022-07-29T09:41:51;3.28;;;1.85;;
27209;SDS011;14721;42.668;23.386;2022-07-29T09:44:39;3.00;;;1.90;;
27209;SDS011;14721;42.668;23.386;2022-07-29T09:47:06;3.25;;;2.55;;
27209;SDS011;14721;42.668;23.386;2022-07-29T09:49:35;8.85;;;2.30;;
27209;SDS011;14721;42.668;23.386;2022-07-29T09:52:16;3.40;;;1.90;;
27209;SDS011;14721;42.668;23.386;2022-07-29T09:54:41;2.33;;;1.70;;
27209;SDS011;14721;42.668;23.386;2022-07-29T09:57:08;2.50;;;1.77;;
27209;SDS011;14721;42.668;23.386;2022-07-29T09:59:37;3.85;;;2.28;;
27209;SDS011;14721;42.668;23.386;2022-07-29T10:02:11;2.17;;;1.60;;
27209;SDS011;14721;42.668;23.386;2022-07-29T10:04:41;2.97;;;1.77;;
27209;SDS011;14721;42.668;23.386;2022-07-29T10:07:09;5.35;;;2.33;;
27209;SDS011;14721;42.668;23.386;2022-07-29T10:09:35;2.67;;;1.58;;
27209;SDS011;14721;42.668;23.386;2022-07-29T10:12:11;5.47;;;1.70;;
27209;SDS011;14721;42.668;23.386;2022-07-29T10:14:43;2.88;;;1.90;;
27209;SDS011;14721;42.668;23.386;2022-07-29T10:17:09;5.40;;;2.25;;
27209;SDS011;14721;42.668;23.386;2022-07-29T10:19:36;3.08;;;2.13;;
27209;SDS011;14721;42.668;23.386;2022-07-29T10:22:13;3.80;;;1.80;;
27209;SDS011;14721;42.668;23.386;2022-07-29T10:24:41;1.83;;;1.40;;
27209;SDS011;14721;42.668;23.386;2022-07-29T10:27:07;3.53;;;1.70;;
27209;SDS011;14721;42.668;23.386;2022-07-29T10:29:34;2.35;;;1.42;;
27209;SDS011;14721;42.668;23.386;2022-07-29T10:35:01;1.67;;;1.35;;
27209;SDS011;14721;42.668;23.386;2022-07-29T10:40:57;3.47;;;1.75;;
27209;SDS011;14721;42.668;23.386;2022-07-29T10:43:33;2.70;;;1.73;;
27209;SDS011;14721;42.668;23.386;2022-07-29T10:46:03;4.07;;;1.65;;
27209;SDS011;14721;42.668;23.386;2022-07-29T10:51:24;2.33;;;1.77;;
27209;SDS011;14721;42.668;23.386;2022-07-29T10:53:51;3.88;;;1.83;;
27209;SDS011;14721;42.668;23.386;2022-07-29T10:56:28;3.00;;;1.50;;
27209;SDS011;14721;42.668;23.386;2022-07-29T11:01:46;1.80;;;1.35;;
27209;SDS011;14721;42.668;23.386;2022-07-29T11:04:13;4.00;;;1.90;;
27209;SDS011;14721;42.668;23.386;2022-07-29T11:09:29;1.95;;;1.60;;
27209;SDS011;14721;42.668;23.386;2022-07-29T11:11:59;2.60;;;1.65;;
27209;SDS011;14721;42.668;23.386;2022-07-29T11:17:24;3.30;;;1.95;;
27209;SDS011;14721;42.668;23.386;2022-07-29T11:19:50;2.22;;;1.40;;
27209;SDS011;14721;42.668;23.386;2022-07-29T11:22:34;3.78;;;2.17;;
27209;SDS011;14721;42.668;23.386;2022-07-29T11:25:12;2.17;;;1.73;;
27209;SDS011;14721;42.668;23.386;2022-07-29T11:27:40;3.80;;;2.28;;
27209;SDS011;14721;42.668;23.386;2022-07-29T11:30:06;2.63;;;1.60;;
27209;SDS011;14721;42.668;23.386;2022-07-29T11:32:39;3.22;;;2.03;;
27209;SDS011;14721;42.668;23.386;2022-07-29T11:35:15;3.78;;;2.50;;
27209;SDS011;14721;42.668;23.386;2022-07-29T11:37:46;3.30;;;1.85;;
27209;SDS011;14721;42.668;23.386;2022-07-29T11:44:08;3.83;;;2.30;;
27209;SDS011;14721;42.668;23.386;2022-07-29T11:46:51;2.78;;;1.60;;
27209;SDS011;14721;42.668;23.386;2022-07-29T11:49:21;3.50;;;2.10;;
27209;SDS011;14721;42.668;23.386;2022-07-29T11:51:52;3.53;;;2.55;;
27209;SDS011;14721;42.668;23.386;2022-07-29T11:54:33;4.25;;;2.63;;
27209;SDS011;14721;42.668;23.386;2022-07-29T11:57:00;5.15;;;1.85;;
27209;SDS011;14721;42.668;23.386;2022-07-29T11:59:27;2.45;;;1.55;;
27209;SDS011;14721;42.668;23.386;2022-07-29T12:04:19;3.35;;;2.20;;
27209;SDS011;14721;42.668;23.386;2022-07-29T12:06:49;4.05;;;2.45;;
27209;SDS011;14721;42.668;23.386;2022-07-29T12:09:19;4.88;;;2.13;;
27209;SDS011;14721;42.668;23.386;2022-07-29T12:11:47;6.32;;;2.10;;
27209;SDS011;14721;42.668;23.386;2022-07-29T12:14:29;3.85;;;2.75;;
27209;SDS011;14721;42.668;23.386;2022-07-29T12:16:58;5.32;;;2.00;;
27209;SDS011;14721;42.668;23.386;2022-07-29T12:19:26;6.10;;;2.33;;
27209;SDS011;14721;42.668;23.386;2022-07-29T12:21:53;3.08;;;2.20;;
27209;SDS011;14721;42.668;23.386;2022-07-29T12:24:23;2.97;;;1.90;;
27209;SDS011;14721;42.668;23.386;2022-07-29T12:26:54;2.85;;;2.03;;
27209;SDS011;14721;42.668;23.386;2022-07-29T12:29:22;5.65;;;2.25;;
27209;SDS011;14721;42.668;23.386;2022-07-29T12:31:52;3.67;;;2.58;;
27209;SDS011;14721;42.668;23.386;2022-07-29T12:34:20;11.55;;;2.70;;
27209;SDS011;14721;42.668;23.386;2022-07-29T12:36:49;3.58;;;2.50;;
27209;SDS011;14721;42.668;23.386;2022-07-29T12:39:16;6.35;;;2.50;;
27209;SDS011;14721;42.668;23.386;2022-07-29T12:41:42;3.88;;;2.63;;
27209;SDS011;14721;42.668;23.386;2022-07-29T12:44:08;3.97;;;2.38;;
27209;SDS011;14721;42.668;23.386;2022-07-29T12:46:34;3.65;;;2.15;;
27209;SDS011;14721;42.668;23.386;2022-07-29T12:48:59;3.85;;;2.50;;
27209;SDS011;14721;42.668;23.386;2022-07-29T12:51:31;2.85;;;2.10;;
27209;SDS011;14721;42.668;23.386;2022-07-29T12:54:09;3.38;;;2.30;;
27209;SDS011;14721;42.668;23.386;2022-07-29T12:56:38;3.83;;;2.58;;
27209;SDS011;14721;42.668;23.386;2022-07-29T12:59:20;5.65;;;2.50;;
27209;SDS011;14721;42.668;23.386;2022-07-29T13:01:47;3.55;;;2.20;;
27209;SDS011;14721;42.668;23.386;2022-07-29T13:04:25;4.50;;;2.65;;
27209;SDS011;14721;42.668;23.386;2022-07-29T13:06:57;4.05;;;2.58;;
27209;SDS011;14721;42.668;23.386;2022-07-29T13:09:35;3.10;;;2.22;;
27209;SDS011;14721;42.668;23.386;2022-07-29T13:12:13;3.60;;;2.38;;
27209;SDS011;14721;42.668;23.386;2022-07-29T13:14:45;2.88;;;1.98;;
27209;SDS011;14721;42.668;23.386;2022-07-29T13:22:17;2.70;;;2.10;;
27209;SDS011;14721;42.668;23.386;2022-07-29T13:24:52;5.03;;;3.17;;
27209;SDS011;14721;42.668;23.386;2022-07-29T13:27:20;4.82;;;2.95;;
27209;SDS011;14721;42.668;23.386;2022-07-29T13:29:48;3.90;;;2.28;;
27209;SDS011;14721;42.668;23.386;2022-07-29T13:32:22;3.42;;;2.60;;
27209;SDS011;14721;42.668;23.386;2022-07-29T13:34:51;4.68;;;2.28;;
27209;SDS011;14721;42.668;23.386;2022-07-29T13:37:17;2.80;;;1.92;;
27209;SDS011;14721;42.668;23.386;2022-07-29T13:39:47;3.80;;;2.50;;
27209;SDS011;14721;42.668;23.386;2022-07-29T13:42:12;3.55;;;2.40;;
27209;SDS011;14721;42.668;23.386;2022-07-29T13:44:39;3.28;;;2.03;;
27209;SDS011;14721;42.668;23.386;2022-07-29T13:47:06;4.47;;;2.80;;
27209;SDS011;14721;42.668;23.386;2022-07-29T13:49:32;2.80;;;2.08;;
27209;SDS011;14721;42.668;23.386;2022-07-29T13:52:01;3.97;;;2.58;;
27209;SDS011;14721;42.668;23.386;2022-07-29T13:54:28;6.63;;;2.58;;
27209;SDS011;14721;42.668;23.386;2022-07-29T13:56:53;4.82;;;2.65;;
27209;SDS011;14721;42.668;23.386;2022-07-29T13:59:21;3.17;;;2.00;;
27209;SDS011;14721;42.668;23.386;2022-07-29T14:01:46;3.60;;;2.67;;
27209;SDS011;14721;42.668;23.386;2022-07-29T14:04:12;3.25;;;2.63;;
27209;SDS011;14721;42.668;23.386;2022-07-29T14:06:38;4.35;;;2.92;;
27209;SDS011;14721;42.668;23.386;2022-07-29T14:09:04;5.57;;;3.30;;
27209;SDS011;14721;42.668;23.386;2022-07-29T14:11:35;3.95;;;2.90;;
27209;SDS011;14721;42.668;23.386;2022-07-29T14:14:03;3.88;;;2.13;;
27209;SDS011;14721;42.668;23.386;2022-07-29T14:16:29;4.13;;;2.83;;
27209;SDS011;14721;42.668;23.386;2022-07-29T14:18:55;4.22;;;2.72;;
27209;SDS011;14721;42.668;23.386;2022-07-29T14:21:20;4.72;;;2.60;;
27209;SDS011;14721;42.668;23.386;2022-07-29T14:23:47;2.35;;;1.73;;
27209;SDS011;14721;42.668;23.386;2022-07-29T14:26:13;4.22;;;2.70;;
27209;SDS011;14721;42.668;23.386;2022-07-29T14:28:38;3.88;;;3.10;;
27209;SDS011;14721;42.668;23.386;2022-07-29T14:31:04;2.88;;;2.05;;
27209;SDS011;14721;42.668;23.386;2022-07-29T14:33:30;3.10;;;2.25;;
27209;SDS011;14721;42.668;23.386;2022-07-29T14:35:55;4.75;;;2.53;;
27209;SDS011;14721;42.668;23.386;2022-07-29T14:38:21;4.07;;;2.83;;
27209;SDS011;14721;42.668;23.386;2022-07-29T14:40:46;4.72;;;2.67;;
27209;SDS011;14721;42.668;23.386;2022-07-29T14:43:12;4.18;;;2.47;;
27209;SDS011;14721;42.668;23.386;2022-07-29T14:45:39;4.78;;;2.45;;
27209;SDS011;14721;42.668;23.386;2022-07-29T14:48:05;4.22;;;2.35;;
27209;SDS011;14721;42.668;23.386;2022-07-29T14:50:32;3.83;;;2.53;;
27209;SDS011;14721;42.668;23.386;2022-07-29T14:52:58;3.97;;;2.60;;
27209;SDS011;14721;42.668;23.386;2022-07-29T14:55:25;4.13;;;2.63;;
27209;SDS011;14721;42.668;23.386;2022-07-29T14:57:52;4.22;;;2.45;;
27209;SDS011;14721;42.668;23.386;2022-07-29T15:00:20;4.68;;;3.10;;
27209;SDS011;14721;42.668;23.386;2022-07-29T15:02:51;5.97;;;2.85;;
27209;SDS011;14721;42.668;23.386;2022-07-29T15:05:17;3.90;;;2.72;;
27209;SDS011;14721;42.668;23.386;2022-07-29T15:07:44;4.57;;;2.83;;
27209;SDS011;14721;42.668;23.386;2022-07-29T15:10:09;4.50;;;2.88;;
27209;SDS011;14721;42.668;23.386;2022-07-29T15:12:35;4.38;;;2.50;;
27209;SDS011;14721;42.668;23.386;2022-07-29T15:15:00;4.72;;;2.60;;
27209;SDS011;14721;42.668;23.386;2022-07-29T15:17:26;4.07;;;2.35;;
27209;SDS011;14721;42.668;23.386;2022-07-29T15:19:52;3.80;;;2.72;;
27209;SDS011;14721;42.668;23.386;2022-07-29T15:22:17;6.65;;;3.60;;
27209;SDS011;14721;42.668;23.386;2022-07-29T15:24:45;4.38;;;2.50;;
27209;SDS011;14721;42.668;23.386;2022-07-29T15:27:12;3.80;;;2.30;;